sensor_id;sensor_type;location;lat;lon;timestamp;temperature;humidity
54461;DHT22;40371;49.414;11.010;2022-07-29T00:02:08;22.60;77.10
54461;DHT22;40371;49.414;11.010;2022-07-29T00:04:36;22.60;77.40
54461;DHT22;40371;49.414;11.010;2022-07-29T00:07:03;22.70;77.20
54461;DHT22;40371;49.414;11.010;2022-07-29T00:09:29;22.70;77.30
54461;DHT22;40371;49.414;11.010;2022-07-29T00:11:56;22.60;77.50
54461;DHT22;40371;49.414;11.010;2022-07-29T00:14:23;22.60;77.70
54461;DHT22;40371;49.414;11.010;2022-07-29T00:16:49;22.60;77.90
54461;DHT22;40371;49.414;11.010;2022-07-29T00:19:14;22.70;78.10
54461;DHT22;40371;49.414;11.010;2022-07-29T00:21:40;22.80;77.50
54461;DHT22;40371;49.414;11.010;2022-07-29T00:24:06;22.70;78.10
54461;DHT22;40371;49.414;11.010;2022-07-29T00:26:31;22.50;78.90
54461;DHT22;40371;49.414;11.010;2022-07-29T00:29:01;22.20;79.40
54461;DHT22;40371;49.414;11.010;2022-07-29T00:31:27;22.00;80.30
54461;DHT22;40371;49.414;11.010;2022-07-29T00:33:53;22.10;80.90
54461;DHT22;40371;49.414;11.010;2022-07-29T00:36:18;22.30;79.70
54461;DHT22;40371;49.414;11.010;2022-07-29T00:38:47;22.40;79.70
54461;DHT22;40371;49.414;11.010;2022-07-29T00:41:12;22.20;80.60
54461;DHT22;40371;49.414;11.010;2022-07-29T00:43:38;22.00;81.00
54461;DHT22;40371;49.414;11.010;2022-07-29T00:46:04;21.90;81.60
54461;DHT22;40371;49.414;11.010;2022-07-29T00:48:29;22.10;80.90
54461;DHT22;40371;49.414;11.010;2022-07-29T00:51:00;22.20;80.20
54461;DHT22;40371;49.414;11.010;2022-07-29T00:53:27;22.20;80.60
54461;DHT22;40371;49.414;11.010;2022-07-29T00:55:55;22.00;80.30
54461;DHT22;40371;49.414;11.010;2022-07-29T00:58:21;21.80;82.00
54461;DHT22;40371;49.414;11.010;2022-07-29T01:00:47;21.60;82.80
54461;DHT22;40371;49.414;11.010;2022-07-29T01:03:13;21.60;82.90
54461;DHT22;40371;49.414;11.010;2022-07-29T01:05:39;21.80;82.70
54461;DHT22;40371;49.414;11.010;2022-07-29T01:08:06;21.90;82.70
54461;DHT22;40371;49.414;11.010;2022-07-29T01:10:32;21.90;82.40
54461;DHT22;40371;49.414;11.010;2022-07-29T01:13:01;22.00;82.10
54461;DHT22;40371;49.414;11.010;2022-07-29T01:15:27;21.90;82.90
54461;DHT22;40371;49.414;11.010;2022-07-29T01:18:07;21.90;82.10
54461;DHT22;40371;49.414;11.010;2022-07-29T01:21:04;22.00;82.30
54461;DHT22;40371;49.414;11.010;2022-07-29T01:29:35;22.00;82.70
54461;DHT22;40371;49.414;11.010;2022-07-29T01:32:08;21.80;83.50
54461;DHT22;40371;49.414;11.010;2022-07-29T01:34:46;21.70;83.60
54461;DHT22;40371;49.414;11.010;2022-07-29T01:37:36;21.70;83.90
54461;DHT22;40371;49.414;11.010;2022-07-29T01:40:04;21.80;84.50
54461;DHT22;40371;49.414;11.010;2022-07-29T01:42:43;21.80;83.90
54461;DHT22;40371;49.414;11.010;2022-07-29T01:45:23;21.80;83.40
54461;DHT22;40371;49.414;11.010;2022-07-29T01:48:05;21.90;83.70
54461;DHT22;40371;49.414;11.010;2022-07-29T01:50:46;21.80;83.60
54461;DHT22;40371;49.414;11.010;2022-07-29T01:53:16;21.80;83.70
54461;DHT22;40371;49.414;11.010;2022-07-29T01:55:48;21.80;85.00
54461;DHT22;40371;49.414;11.010;2022-07-29T01:58:17;21.70;85.30
54461;DHT22;40371;49.414;11.010;2022-07-29T02:00:45;21.80;85.20
54461;DHT22;40371;49.414;11.010;2022-07-29T02:03:13;21.60;85.50
54461;DHT22;40371;49.414;11.010;2022-07-29T02:05:42;21.50;85.80
54461;DHT22;40371;49.414;11.010;2022-07-29T02:08:10;21.40;86.20
54461;DHT22;40371;49.414;11.010;2022-07-29T02:10:38;21.40;86.00
54461;DHT22;40371;49.414;11.010;2022-07-29T02:13:05;21.50;85.70
54461;DHT22;40371;49.414;11.010;2022-07-29T02:15:33;21.60;85.60
54461;DHT22;40371;49.414;11.010;2022-07-29T02:18:10;21.70;85.50
54461;DHT22;40371;49.414;11.010;2022-07-29T02:20:38;21.60;85.50
54461;DHT22;40371;49.414;11.010;2022-07-29T02:23:04;21.70;85.70
54461;DHT22;40371;49.414;11.010;2022-07-29T02:25:32;21.60;85.50
54461;DHT22;40371;49.414;11.010;2022-07-29T02:27:59;21.60;85.90
54461;DHT22;40371;49.414;11.010;2022-07-29T02:30:27;21.40;86.40
54461;DHT22;40371;49.414;11.010;2022-07-29T02:32:53;21.40;86.60
54461;DHT22;40371;49.414;11.010;2022-07-29T02:35:21;21.50;86.70
54461;DHT22;40371;49.414;11.010;2022-07-29T02:37:47;21.30;86.90
54461;DHT22;40371;49.414;11.010;2022-07-29T02:40:36;21.30;87.00
54461;DHT22;40371;49.414;11.010;2022-07-29T02:43:05;21.50;86.50
54461;DHT22;40371;49.414;11.010;2022-07-29T02:45:32;21.60;86.90
54461;DHT22;40371;49.414;11.010;2022-07-29T02:48:03;21.50;87.60
54461;DHT22;40371;49.414;11.010;2022-07-29T02:50:34;21.30;87.90
54461;DHT22;40371;49.414;11.010;2022-07-29T02:53:18;21.20;88.30
54461;DHT22;40371;49.414;11.010;2022-07-29T02:55:49;21.20;88.70
54461;DHT22;40371;49.414;11.010;2022-07-29T02:58:38;21.00;89.50
54461;DHT22;40371;49.414;11.010;2022-07-29T03:01:11;20.90;89.10
54461;DHT22;40371;49.414;11.010;2022-07-29T03:03:38;21.20;89.10
54461;DHT22;40371;49.414;11.010;2022-07-29T03:06:05;21.20;88.80
54461;DHT22;40371;49.414;11.010;2022-07-29T03:08:32;21.20;89.10
54461;DHT22;40371;49.414;11.010;2022-07-29T03:11:00;21.00;89.20
54461;DHT22;40371;49.414;11.010;2022-07-29T03:13:27;21.00;88.80
54461;DHT22;40371;49.414;11.010;2022-07-29T03:15:53;21.10;89.40
54461;DHT22;40371;49.414;11.010;2022-07-29T03:18:20;21.10;89.40
54461;DHT22;40371;49.414;11.010;2022-07-29T03:20:46;21.00;90.00
54461;DHT22;40371;49.414;11.010;2022-07-29T03:23:11;20.80;90.10
54461;DHT22;40371;49.414;11.010;2022-07-29T03:25:37;20.80;90.30
54461;DHT22;40371;49.414;11.010;2022-07-29T03:28:03;20.80;90.10
54461;DHT22;40371;49.414;11.010;2022-07-29T03:30:28;20.80;90.40
54461;DHT22;40371;49.414;11.010;2022-07-29T03:32:56;20.80;90.40
54461;DHT22;40371;49.414;11.010;2022-07-29T03:35:21;20.60;90.50
54461;DHT22;40371;49.414;11.010;2022-07-29T03:37:48;20.60;90.80
54461;DHT22;40371;49.414;11.010;2022-07-29T03:40:18;20.60;91.00
54461;DHT22;40371;49.414;11.010;2022-07-29T03:42:45;20.50;91.00
54461;DHT22;40371;49.414;11.010;2022-07-29T03:45:15;20.50;91.10
54461;DHT22;40371;49.414;11.010;2022-07-29T03:47:45;20.70;91.00
54461;DHT22;40371;49.414;11.010;2022-07-29T03:50:15;20.80;90.90
54461;DHT22;40371;49.414;11.010;2022-07-29T03:52:41;20.70;90.70
54461;DHT22;40371;49.414;11.010;2022-07-29T03:55:08;20.70;91.20
54461;DHT22;40371;49.414;11.010;2022-07-29T03:57:34;20.60;91.10
54461;DHT22;40371;49.414;11.010;2022-07-29T04:00:03;20.60;91.10
54461;DHT22;40371;49.414;11.010;2022-07-29T04:02:31;20.70;91.20
54461;DHT22;40371;49.414;11.010;2022-07-29T04:04:57;20.70;91.30
54461;DHT22;40371;49.414;11.010;2022-07-29T04:07:23;20.80;91.30
54461;DHT22;40371;49.414;11.010;2022-07-29T04:09:48;20.60;91.60
54461;DHT22;40371;49.414;11.010;2022-07-29T04:12:14;20.50;91.70
54461;DHT22;40371;49.414;11.010;2022-07-29T04:14:39;20.50;91.80
54461;DHT22;40371;49.414;11.010;2022-07-29T04:17:05;20.70;91.80
54461;DHT22;40371;49.414;11.010;2022-07-29T04:19:31;20.60;91.90
54461;DHT22;40371;49.414;11.010;2022-07-29T04:21:58;20.50;92.20
54461;DHT22;40371;49.414;11.010;2022-07-29T04:24:25;20.40;92.10
54461;DHT22;40371;49.414;11.010;2022-07-29T04:26:50;20.30;92.30
54461;DHT22;40371;49.414;11.010;2022-07-29T04:29:16;20.10;92.50
54461;DHT22;40371;49.414;11.010;2022-07-29T04:31:42;20.20;92.60
54461;DHT22;40371;49.414;11.010;2022-07-29T04:34:08;20.10;92.80
54461;DHT22;40371;49.414;11.010;2022-07-29T04:36:34;19.90;93.00
54461;DHT22;40371;49.414;11.010;2022-07-29T04:39:00;20.10;93.00
54461;DHT22;40371;49.414;11.010;2022-07-29T04:41:27;20.10;92.90
54461;DHT22;40371;49.414;11.010;2022-07-29T04:43:53;20.20;92.90
54461;DHT22;40371;49.414;11.010;2022-07-29T04:46:18;20.10;92.90
54461;DHT22;40371;49.414;11.010;2022-07-29T04:48:47;20.10;93.10
54461;DHT22;40371;49.414;11.010;2022-07-29T04:51:14;20.30;92.80
54461;DHT22;40371;49.414;11.010;2022-07-29T04:53:39;20.30;93.10
54461;DHT22;40371;49.414;11.010;2022-07-29T04:56:05;20.30;93.30
54461;DHT22;40371;49.414;11.010;2022-07-29T04:58:31;20.10;93.20
54461;DHT22;40371;49.414;11.010;2022-07-29T05:00:56;20.20;93.40
54461;DHT22;40371;49.414;11.010;2022-07-29T05:03:22;20.20;93.20
54461;DHT22;40371;49.414;11.010;2022-07-29T05:05:47;20.10;93.60
54461;DHT22;40371;49.414;11.010;2022-07-29T05:08:13;19.80;94.00
54461;DHT22;40371;49.414;11.010;2022-07-29T05:10:39;19.70;94.40
54461;DHT22;40371;49.414;11.010;2022-07-29T05:13:05;19.80;94.50
54461;DHT22;40371;49.414;11.010;2022-07-29T05:15:33;20.00;94.00
54461;DHT22;40371;49.414;11.010;2022-07-29T05:17:59;20.30;93.70
54461;DHT22;40371;49.414;11.010;2022-07-29T05:20:24;20.50;93.20
54461;DHT22;40371;49.414;11.010;2022-07-29T05:22:58;20.70;92.70
54461;DHT22;40371;49.414;11.010;2022-07-29T05:25:28;20.70;91.80
54461;DHT22;40371;49.414;11.010;2022-07-29T05:27:54;20.80;91.70
54461;DHT22;40371;49.414;11.010;2022-07-29T05:30:20;20.90;91.80
54461;DHT22;40371;49.414;11.010;2022-07-29T05:32:46;21.10;91.60
54461;DHT22;40371;49.414;11.010;2022-07-29T05:35:13;21.20;91.20
54461;DHT22;40371;49.414;11.010;2022-07-29T05:37:38;21.40;91.10
54461;DHT22;40371;49.414;11.010;2022-07-29T05:40:05;21.50;91.40
54461;DHT22;40371;49.414;11.010;2022-07-29T05:42:30;21.50;90.90
54461;DHT22;40371;49.414;11.010;2022-07-29T05:44:56;21.50;91.40
54461;DHT22;40371;49.414;11.010;2022-07-29T05:47:22;21.60;91.30
54461;DHT22;40371;49.414;11.010;2022-07-29T05:49:48;21.60;91.10
54461;DHT22;40371;49.414;11.010;2022-07-29T05:52:14;21.70;91.20
54461;DHT22;40371;49.414;11.010;2022-07-29T05:54:40;21.80;90.90
54461;DHT22;40371;49.414;11.010;2022-07-29T05:57:05;21.90;90.40
54461;DHT22;40371;49.414;11.010;2022-07-29T05:59:37;21.80;90.30
54461;DHT22;40371;49.414;11.010;2022-07-29T06:02:04;21.80;90.80
54461;DHT22;40371;49.414;11.010;2022-07-29T06:04:31;21.80;90.80
54461;DHT22;40371;49.414;11.010;2022-07-29T06:06:56;21.90;91.00
54461;DHT22;40371;49.414;11.010;2022-07-29T06:09:22;22.10;90.90
54461;DHT22;40371;49.414;11.010;2022-07-29T06:11:48;22.10;90.70
54461;DHT22;40371;49.414;11.010;2022-07-29T06:14:14;22.20;90.20
54461;DHT22;40371;49.414;11.010;2022-07-29T06:16:39;22.50;90.10
54461;DHT22;40371;49.414;11.010;2022-07-29T06:19:05;22.70;90.10
54461;DHT22;40371;49.414;11.010;2022-07-29T06:21:30;22.90;89.40
54461;DHT22;40371;49.414;11.010;2022-07-29T06:23:56;23.20;88.30
54461;DHT22;40371;49.414;11.010;2022-07-29T06:26:22;23.30;87.70
54461;DHT22;40371;49.414;11.010;2022-07-29T06:28:48;23.40;86.60
54461;DHT22;40371;49.414;11.010;2022-07-29T06:31:14;23.50;86.50
54461;DHT22;40371;49.414;11.010;2022-07-29T06:33:39;23.50;86.60
54461;DHT22;40371;49.414;11.010;2022-07-29T06:36:05;23.50;87.40
54461;DHT22;40371;49.414;11.010;2022-07-29T06:38:32;23.30;87.10
54461;DHT22;40371;49.414;11.010;2022-07-29T06:40:58;23.30;87.70
54461;DHT22;40371;49.414;11.010;2022-07-29T06:43:39;23.40;87.60
54461;DHT22;40371;49.414;11.010;2022-07-29T06:46:14;23.20;88.50
54461;DHT22;40371;49.414;11.010;2022-07-29T06:48:41;23.30;88.40
54461;DHT22;40371;49.414;11.010;2022-07-29T06:51:08;23.40;88.40
54461;DHT22;40371;49.414;11.010;2022-07-29T06:53:34;23.40;87.90
54461;DHT22;40371;49.414;11.010;2022-07-29T06:56:02;23.50;88.20
54461;DHT22;40371;49.414;11.010;2022-07-29T06:58:28;23.60;88.30
54461;DHT22;40371;49.414;11.010;2022-07-29T07:00:55;24.00;88.10
54461;DHT22;40371;49.414;11.010;2022-07-29T07:03:21;24.20;87.40
54461;DHT22;40371;49.414;11.010;2022-07-29T07:05:48;24.40;86.60
54461;DHT22;40371;49.414;11.010;2022-07-29T07:08:14;24.40;86.80
54461;DHT22;40371;49.414;11.010;2022-07-29T07:10:41;24.50;86.40
54461;DHT22;40371;49.414;11.010;2022-07-29T07:13:07;24.40;86.60
54461;DHT22;40371;49.414;11.010;2022-07-29T07:15:33;24.40;86.80
54461;DHT22;40371;49.414;11.010;2022-07-29T07:17:58;24.30;87.60
54461;DHT22;40371;49.414;11.010;2022-07-29T07:20:24;24.50;88.60
54461;DHT22;40371;49.414;11.010;2022-07-29T07:22:50;24.70;87.20
54461;DHT22;40371;49.414;11.010;2022-07-29T07:25:16;25.00;87.50
54461;DHT22;40371;49.414;11.010;2022-07-29T07:27:43;25.10;87.30
54461;DHT22;40371;49.414;11.010;2022-07-29T07:30:09;25.30;86.30
54461;DHT22;40371;49.414;11.010;2022-07-29T07:32:36;25.40;86.30
54461;DHT22;40371;49.414;11.010;2022-07-29T07:35:03;25.40;86.00
54461;DHT22;40371;49.414;11.010;2022-07-29T07:37:28;25.20;85.80
54461;DHT22;40371;49.414;11.010;2022-07-29T07:39:54;25.10;86.70
54461;DHT22;40371;49.414;11.010;2022-07-29T07:42:20;25.50;85.80
54461;DHT22;40371;49.414;11.010;2022-07-29T07:44:45;25.90;85.30
54461;DHT22;40371;49.414;11.010;2022-07-29T07:47:14;26.20;83.90
54461;DHT22;40371;49.414;11.010;2022-07-29T07:49:40;26.00;84.30
54461;DHT22;40371;49.414;11.010;2022-07-29T07:52:06;26.10;84.50
54461;DHT22;40371;49.414;11.010;2022-07-29T07:54:32;26.20;84.00
54461;DHT22;40371;49.414;11.010;2022-07-29T07:56:57;25.90;83.90
54461;DHT22;40371;49.414;11.010;2022-07-29T07:59:23;25.90;84.20
54461;DHT22;40371;49.414;11.010;2022-07-29T08:01:49;25.80;84.80
54461;DHT22;40371;49.414;11.010;2022-07-29T08:04:15;25.60;84.80
54461;DHT22;40371;49.414;11.010;2022-07-29T08:06:40;25.60;85.00
54461;DHT22;40371;49.414;11.010;2022-07-29T08:09:06;26.40;84.10
54461;DHT22;40371;49.414;11.010;2022-07-29T08:11:32;27.10;81.90
54461;DHT22;40371;49.414;11.010;2022-07-29T08:13:58;27.20;81.70
54461;DHT22;40371;49.414;11.010;2022-07-29T08:16:23;27.20;81.00
54461;DHT22;40371;49.414;11.010;2022-07-29T08:18:50;26.90;80.90
54461;DHT22;40371;49.414;11.010;2022-07-29T08:21:17;27.00;81.10
54461;DHT22;40371;49.414;11.010;2022-07-29T08:23:45;27.50;80.10
54461;DHT22;40371;49.414;11.010;2022-07-29T08:26:15;27.60;79.20
54461;DHT22;40371;49.414;11.010;2022-07-29T08:28:43;28.20;78.60
54461;DHT22;40371;49.414;11.010;2022-07-29T08:31:12;28.30;77.00
54461;DHT22;40371;49.414;11.010;2022-07-29T08:33:38;28.40;77.30
54461;DHT22;40371;49.414;11.010;2022-07-29T08:36:05;28.40;76.30
54461;DHT22;40371;49.414;11.010;2022-07-29T08:38:30;29.00;75.60
54461;DHT22;40371;49.414;11.010;2022-07-29T08:40:56;29.70;73.50
54461;DHT22;40371;49.414;11.010;2022-07-29T08:43:22;30.00;73.60
54461;DHT22;40371;49.414;11.010;2022-07-29T08:45:50;30.40;71.50
54461;DHT22;40371;49.414;11.010;2022-07-29T08:48:18;30.40;72.10
54461;DHT22;40371;49.414;11.010;2022-07-29T08:50:46;30.70;70.40
54461;DHT22;40371;49.414;11.010;2022-07-29T08:53:14;31.10;70.40
54461;DHT22;40371;49.414;11.010;2022-07-29T08:55:44;31.40;69.60
54461;DHT22;40371;49.414;11.010;2022-07-29T08:58:11;31.60;68.40
54461;DHT22;40371;49.414;11.010;2022-07-29T09:00:41;31.60;68.20
54461;DHT22;40371;49.414;11.010;2022-07-29T09:03:08;31.90;67.60
54461;DHT22;40371;49.414;11.010;2022-07-29T09:05:34;32.70;66.20
54461;DHT22;40371;49.414;11.010;2022-07-29T09:08:01;32.60;65.60
54461;DHT22;40371;49.414;11.010;2022-07-29T09:10:27;34.80;64.50
54461;DHT22;40371;49.414;11.010;2022-07-29T09:12:54;35.90;59.70
54461;DHT22;40371;49.414;11.010;2022-07-29T09:15:23;34.70;57.80
54461;DHT22;40371;49.414;11.010;2022-07-29T09:17:50;35.40;58.60
54461;DHT22;40371;49.414;11.010;2022-07-29T09:20:21;36.50;58.00
54461;DHT22;40371;49.414;11.010;2022-07-29T09:22:49;37.50;57.20
54461;DHT22;40371;49.414;11.010;2022-07-29T09:25:35;37.90;56.80
54461;DHT22;40371;49.414;11.010;2022-07-29T09:28:15;38.90;55.00
54461;DHT22;40371;49.414;11.010;2022-07-29T09:30:53;35.80;56.30
54461;DHT22;40371;49.414;11.010;2022-07-29T09:33:19;36.60;56.80
54461;DHT22;40371;49.414;11.010;2022-07-29T09:35:45;38.00;54.50
54461;DHT22;40371;49.414;11.010;2022-07-29T09:38:12;36.20;54.30
54461;DHT22;40371;49.414;11.010;2022-07-29T09:40:38;34.00;56.90
54461;DHT22;40371;49.414;11.010;2022-07-29T09:43:13;33.10;57.80
54461;DHT22;40371;49.414;11.010;2022-07-29T09:45:39;32.40;58.90
54461;DHT22;40371;49.414;11.010;2022-07-29T09:48:16;31.50;60.10
54461;DHT22;40371;49.414;11.010;2022-07-29T09:50:43;31.70;61.10
54461;DHT22;40371;49.414;11.010;2022-07-29T09:53:10;31.50;59.90
54461;DHT22;40371;49.414;11.010;2022-07-29T09:55:51;31.40;60.10
54461;DHT22;40371;49.414;11.010;2022-07-29T09:58:21;32.10;60.60
54461;DHT22;40371;49.414;11.010;2022-07-29T10:00:49;35.10;58.10
54461;DHT22;40371;49.414;11.010;2022-07-29T10:03:16;36.20;56.30
54461;DHT22;40371;49.414;11.010;2022-07-29T10:05:43;35.50;56.20
54461;DHT22;40371;49.414;11.010;2022-07-29T10:08:10;34.20;57.00
54461;DHT22;40371;49.414;11.010;2022-07-29T10:10:38;32.70;58.00
54461;DHT22;40371;49.414;11.010;2022-07-29T10:13:06;32.50;59.10
54461;DHT22;40371;49.414;11.010;2022-07-29T10:15:34;32.90;59.30
54461;DHT22;40371;49.414;11.010;2022-07-29T10:18:06;34.70;57.10
54461;DHT22;40371;49.414;11.010;2022-07-29T10:20:32;33.30;56.80
54461;DHT22;40371;49.414;11.010;2022-07-29T10:22:58;32.70;59.00
54461;DHT22;40371;49.414;11.010;2022-07-29T10:25:25;33.40;58.80
54461;DHT22;40371;49.414;11.010;2022-07-29T10:27:51;32.40;58.10
54461;DHT22;40371;49.414;11.010;2022-07-29T10:30:18;32.90;58.60
54461;DHT22;40371;49.414;11.010;2022-07-29T10:44:18;36.20;54.40
54461;DHT22;40371;49.414;11.010;2022-07-29T10:46:45;36.30;54.50
54461;DHT22;40371;49.414;11.010;2022-07-29T10:49:15;36.30;53.70
54461;DHT22;40371;49.414;11.010;2022-07-29T10:54:35;36.00;53.40
54461;DHT22;40371;49.414;11.010;2022-07-29T10:57:23;35.00;55.20
54461;DHT22;40371;49.414;11.010;2022-07-29T11:04:59;33.50;56.30
54461;DHT22;40371;49.414;11.010;2022-07-29T11:07:26;33.80;56.40
54461;DHT22;40371;49.414;11.010;2022-07-29T11:15:12;34.50;55.70
54461;DHT22;40371;49.414;11.010;2022-07-29T11:20:40;35.10;55.40
54461;DHT22;40371;49.414;11.010;2022-07-29T11:23:32;35.20;54.70
54461;DHT22;40371;49.414;11.010;2022-07-29T11:28:53;34.90;54.60
54461;DHT22;40371;49.414;11.010;2022-07-29T11:31:38;34.20;55.60
54461;DHT22;40371;49.414;11.010;2022-07-29T11:34:24;35.50;55.40
54461;DHT22;40371;49.414;11.010;2022-07-29T11:39:36;38.40;51.80
54461;DHT22;40371;49.414;11.010;2022-07-29T11:45:05;37.50;51.20
54461;DHT22;40371;49.414;11.010;2022-07-29T11:47:38;36.00;53.10
54461;DHT22;40371;49.414;11.010;2022-07-29T11:50:08;34.40;55.20
54461;DHT22;40371;49.414;11.010;2022-07-29T11:52:36;35.10;56.80
54461;DHT22;40371;49.414;11.010;2022-07-29T11:55:09;37.50;53.50
54461;DHT22;40371;49.414;11.010;2022-07-29T11:57:35;38.50;51.70
54461;DHT22;40371;49.414;11.010;2022-07-29T12:00:03;36.80;52.10
54461;DHT22;40371;49.414;11.010;2022-07-29T12:02:42;36.00;53.10
54461;DHT22;40371;49.414;11.010;2022-07-29T12:05:09;36.70;52.40
54461;DHT22;40371;49.414;11.010;2022-07-29T12:07:37;37.20;52.60
54461;DHT22;40371;49.414;11.010;2022-07-29T12:10:05;37.00;52.10
54461;DHT22;40371;49.414;11.010;2022-07-29T12:12:31;36.70;52.00
54461;DHT22;40371;49.414;11.010;2022-07-29T12:14:56;36.80;51.90
54461;DHT22;40371;49.414;11.010;2022-07-29T12:17:33;37.10;51.00
54461;DHT22;40371;49.414;11.010;2022-07-29T12:20:01;37.20;51.30
54461;DHT22;40371;49.414;11.010;2022-07-29T12:22:30;36.80;52.10
54461;DHT22;40371;49.414;11.010;2022-07-29T12:25:07;36.70;52.20
54461;DHT22;40371;49.414;11.010;2022-07-29T12:27:35;36.40;52.70
54461;DHT22;40371;49.414;11.010;2022-07-29T12:30:04;36.40;53.10
54461;DHT22;40371;49.414;11.010;2022-07-29T12:32:44;36.30;53.40
54461;DHT22;40371;49.414;11.010;2022-07-29T12:35:17;35.80;53.30
54461;DHT22;40371;49.414;11.010;2022-07-29T12:37:45;35.10;54.30
54461;DHT22;40371;49.414;11.010;2022-07-29T12:40:14;34.60;55.10
54461;DHT22;40371;49.414;11.010;2022-07-29T12:42:41;33.30;56.70
54461;DHT22;40371;49.414;11.010;2022-07-29T12:45:07;33.00;57.60
54461;DHT22;40371;49.414;11.010;2022-07-29T12:47:50;33.10;57.50
54461;DHT22;40371;49.414;11.010;2022-07-29T12:50:16;32.90;57.80
54461;DHT22;40371;49.414;11.010;2022-07-29T12:52:44;32.20;58.50
54461;DHT22;40371;49.414;11.010;2022-07-29T12:55:10;32.50;58.40
54461;DHT22;40371;49.414;11.010;2022-07-29T12:57:46;32.70;57.80
54461;DHT22;40371;49.414;11.010;2022-07-29T13:00:13;32.30;56.90
54461;DHT22;40371;49.414;11.010;2022-07-29T13:02:40;31.90;55.50
54461;DHT22;40371;49.414;11.010;2022-07-29T13:05:08;31.40;56.20
54461;DHT22;40371;49.414;11.010;2022-07-29T13:07:35;31.40;56.50
54461;DHT22;40371;49.414;11.010;2022-07-29T13:10:14;31.10;56.20
54461;DHT22;40371;49.414;11.010;2022-07-29T13:13:05;31.00;56.70
54461;DHT22;40371;49.414;11.010;2022-07-29T13:15:32;31.30;56.70
54461;DHT22;40371;49.414;11.010;2022-07-29T13:17:58;31.30;56.90
54461;DHT22;40371;49.414;11.010;2022-07-29T13:20:25;31.30;56.60
54461;DHT22;40371;49.414;11.010;2022-07-29T13:22:53;31.10;56.40
54461;DHT22;40371;49.414;11.010;2022-07-29T13:25:29;30.70;57.20
54461;DHT22;40371;49.414;11.010;2022-07-29T13:27:55;30.60;58.40
54461;DHT22;40371;49.414;11.010;2022-07-29T13:30:22;30.10;60.80
54461;DHT22;40371;49.414;11.010;2022-07-29T13:32:48;30.10;61.80
54461;DHT22;40371;49.414;11.010;2022-07-29T13:35:14;29.80;63.50
54461;DHT22;40371;49.414;11.010;2022-07-29T13:37:40;29.20;66.00
54461;DHT22;40371;49.414;11.010;2022-07-29T13:40:09;29.20;67.10
54461;DHT22;40371;49.414;11.010;2022-07-29T13:42:35;28.70;69.30
54461;DHT22;40371;49.414;11.010;2022-07-29T13:45:02;28.20;70.60
54461;DHT22;40371;49.414;11.010;2022-07-29T13:47:28;27.90;71.80
54461;DHT22;40371;49.414;11.010;2022-07-29T13:49:54;27.50;74.70
54461;DHT22;40371;49.414;11.010;2022-07-29T13:52:20;27.10;76.60
54461;DHT22;40371;49.414;11.010;2022-07-29T13:54:46;27.00;77.40
54461;DHT22;40371;49.414;11.010;2022-07-29T13:57:12;26.90;78.10
54461;DHT22;40371;49.414;11.010;2022-07-29T13:59:39;26.80;79.00
54461;DHT22;40371;49.414;11.010;2022-07-29T14:02:05;26.70;79.00
54461;DHT22;40371;49.414;11.010;2022-07-29T14:04:31;26.70;79.00
54461;DHT22;40371;49.414;11.010;2022-07-29T14:06:57;26.80;77.20
54461;DHT22;40371;49.414;11.010;2022-07-29T14:09:23;26.80;78.60
54461;DHT22;40371;49.414;11.010;2022-07-29T14:11:48;26.80;80.00
54461;DHT22;40371;49.414;11.010;2022-07-29T14:14:15;26.40;83.30
54461;DHT22;40371;49.414;11.010;2022-07-29T14:16:41;26.10;88.60
54461;DHT22;40371;49.414;11.010;2022-07-29T14:19:06;25.90;90.30
54461;DHT22;40371;49.414;11.010;2022-07-29T14:21:32;25.90;91.90
54461;DHT22;40371;49.414;11.010;2022-07-29T14:23:58;25.80;90.30
54461;DHT22;40371;49.414;11.010;2022-07-29T14:26:24;25.80;92.30
54461;DHT22;40371;49.414;11.010;2022-07-29T14:28:49;26.00;91.80
54461;DHT22;40371;49.414;11.010;2022-07-29T14:31:15;25.80;90.90
54461;DHT22;40371;49.414;11.010;2022-07-29T14:33:41;26.00;88.50
54461;DHT22;40371;49.414;11.010;2022-07-29T14:36:06;26.00;89.00
54461;DHT22;40371;49.414;11.010;2022-07-29T14:38:33;26.10;89.80
54461;DHT22;40371;49.414;11.010;2022-07-29T14:40:58;26.10;90.20
54461;DHT22;40371;49.414;11.010;2022-07-29T14:43:24;26.10;90.60
54461;DHT22;40371;49.414;11.010;2022-07-29T14:45:49;26.20;90.40
54461;DHT22;40371;49.414;11.010;2022-07-29T14:48:15;26.30;90.40
54461;DHT22;40371;49.414;11.010;2022-07-29T14:50:41;26.40;90.30
54461;DHT22;40371;49.414;11.010;2022-07-29T14:53:06;26.40;87.90
54461;DHT22;40371;49.414;11.010;2022-07-29T14:55:32;26.40;89.10
54461;DHT22;40371;49.414;11.010;2022-07-29T14:57:58;26.40;88.20
54461;DHT22;40371;49.414;11.010;2022-07-29T15:00:25;26.60;88.30
54461;DHT22;40371;49.414;11.010;2022-07-29T15:02:50;26.60;88.20
54461;DHT22;40371;49.414;11.010;2022-07-29T15:05:16;26.70;87.70
54461;DHT22;40371;49.414;11.010;2022-07-29T15:07:41;26.70;89.30
54461;DHT22;40371;49.414;11.010;2022-07-29T15:10:07;26.60;90.10
54461;DHT22;40371;49.414;11.010;2022-07-29T15:12:33;26.60;89.20
54461;DHT22;40371;49.414;11.010;2022-07-29T15:14:58;26.60;89.10
54461;DHT22;40371;49.414;11.010;2022-07-29T15:17:24;26.40;87.40
54461;DHT22;40371;49.414;11.010;2022-07-29T15:19:50;26.40;86.90
54461;DHT22;40371;49.414;11.010;2022-07-29T15:22:15;26.50;86.90
54461;DHT22;40371;49.414;11.010;2022-07-29T15:24:41;26.60;85.90
54461;DHT22;40371;49.414;11.010;2022-07-29T15:27:07;26.70;86.00
54461;DHT22;40371;49.414;11.010;2022-07-29T15:29:32;26.70;85.30
54461;DHT22;40371;49.414;11.010;2022-07-29T15:31:58;26.70;84.10
54461;DHT22;40371;49.414;11.010;2022-07-29T15:34:24;26.60;84.80
54461;DHT22;40371;49.414;11.010;2022-07-29T15:36:52;26.60;85.30
54461;DHT22;40371;49.414;11.010;2022-07-29T15:39:19;26.50;84.80
54461;DHT22;40371;49.414;11.010;2022-07-29T15:41:45;26.50;86.10
54461;DHT22;40371;49.414;11.010;2022-07-29T15:44:11;26.40;89.10
54461;DHT22;40371;49.414;11.010;2022-07-29T15:46:37;26.40;90.10
54461;DHT22;40371;49.414;11.010;2022-07-29T15:49:21;26.20;91.10
54461;DHT22;40371;49.414;11.010;2022-07-29T15:51:46;26.20;91.60
54461;DHT22;40371;49.414;11.010;2022-07-29T15:54:12;26.00;92.30
54461;DHT22;40371;49.414;11.010;2022-07-29T15:56:38;25.80;92.70
54461;DHT22;40371;49.414;11.010;2022-07-29T15:59:03;25.70;93.20
54461;DHT22;40371;49.414;11.010;2022-07-29T16:01:29;25.60;92.90
54461;DHT22;40371;49.414;11.010;2022-07-29T16:03:54;25.50;93.50